createdAt,value
2023-05-17T00:10:00.338Z,101515.44
2023-05-17T00:20:05.358Z,101526.69
2023-05-17T00:30:09.905Z,101522.50
2023-05-17T00:40:16.122Z,101520.88
2023-05-17T00:50:19.412Z,101524.44
2023-05-17T01:00:24.321Z,101521.06
2023-05-17T01:10:36.978Z,101534.88
2023-05-17T01:20:44.442Z,101542.63
2023-05-17T01:30:52.311Z,101546.94
2023-05-17T01:40:59.872Z,101546.13
2023-05-17T01:51:06.269Z,101565.00
2023-05-17T02:01:10.682Z,101565.03
2023-05-17T02:11:15.998Z,101576.16
2023-05-17T02:21:19.618Z,101577.88
2023-05-17T02:31:24.941Z,101575.31
2023-05-17T02:41:29.143Z,101581.38
2023-05-17T02:51:35.535Z,101578.84
2023-05-17T03:01:38.447Z,101588.28
2023-05-17T03:11:42.953Z,101583.13
2023-05-17T03:21:53.882Z,101591.69
2023-05-17T03:31:58.871Z,101604.56
2023-05-17T03:42:02.408Z,101614.84
2023-05-17T03:52:09.119Z,101617.44
2023-05-17T04:02:12.355Z,101603.75
2023-05-17T04:12:16.620Z,101621.75
2023-05-17T04:22:21.105Z,101638.88
2023-05-17T04:32:26.038Z,101657.69
2023-05-17T04:42:29.712Z,101650.03
2023-05-17T04:52:36.639Z,101663.69
2023-05-17T05:02:40.358Z,101672.25
2023-05-17T05:12:46.647Z,101689.38
2023-05-17T05:22:50.126Z,101691.06
2023-05-17T05:32:56.030Z,101702.19
2023-05-17T05:42:59.024Z,101703.84
2023-05-17T05:53:17.494Z,101710.63
2023-05-17T06:03:26.016Z,101700.34
2023-05-17T06:13:30.828Z,101721.72
2023-05-17T06:23:33.952Z,101727.75
2023-05-17T06:33:38.226Z,101741.91
2023-05-17T06:43:41.483Z,101751.97
2023-05-17T06:54:05.035Z,101751.81
2023-05-17T07:04:07.974Z,101761.91
2023-05-17T07:14:12.307Z,101758.97
2023-05-17T07:24:15.533Z,101773.59
2023-05-17T07:34:19.915Z,101780.25
2023-05-17T07:44:22.905Z,101779.25
2023-05-17T07:54:28.215Z,101793.28
2023-05-17T08:04:31.135Z,101795.53
2023-05-17T08:14:35.406Z,101785.94
2023-05-17T08:24:38.258Z,101788.13
2023-05-17T08:34:42.407Z,101805.44
2023-05-17T08:44:45.467Z,101792.25
2023-05-17T08:54:50.143Z,101803.09
2023-05-17T09:04:55.889Z,101792.63
2023-05-17T09:15:15.009Z,101793.06
2023-05-17T09:25:20.773Z,101785.88
2023-05-17T09:35:30.573Z,101790.81
2023-05-17T09:45:33.825Z,101791.28
2023-05-17T09:55:39.477Z,101788.09
2023-05-17T10:05:45.178Z,101775.06
2023-05-17T10:15:50.587Z,101766.41
2023-05-17T10:25:53.766Z,101771.13
2023-05-17T10:36:18.742Z,101760.47
2023-05-17T10:46:24.610Z,101751.06
2023-05-17T10:56:31.297Z,101755.75
2023-05-17T11:06:38.487Z,101737.44
2023-05-17T11:16:42.733Z,101727.16
2023-05-17T11:26:46.987Z,101720.03
2023-05-17T11:36:53.125Z,101714.13
2023-05-17T11:47:03.251Z,101714.50
2023-05-17T11:57:08.005Z,101701.66
2023-05-17T12:07:11.091Z,101695.91
2023-05-17T12:17:29.139Z,101711.50
2023-05-17T12:27:31.948Z,101706.06
2023-05-17T12:37:36.707Z,101689.72
2023-05-17T12:47:40.045Z,101716.09
2023-05-17T12:57:51.673Z,101706.91
2023-05-17T13:07:54.823Z,101705.66
2023-05-17T13:18:00.787Z,101699.75
2023-05-17T13:28:04.802Z,101708.72
2023-05-17T13:38:09.079Z,101694.63
2023-05-17T13:48:12.165Z,101696.53
2023-05-17T13:58:18.195Z,101690.31
2023-05-17T14:08:21.503Z,101695.66
2023-05-17T14:18:26.381Z,101695.38
2023-05-17T14:28:29.634Z,101691.34
2023-05-17T14:38:34.008Z,101679.91
2023-05-17T14:48:37.518Z,101681.16
2023-05-17T14:58:42.290Z,101678.16
2023-05-17T15:08:45.322Z,101664.94
2023-05-17T15:18:50.003Z,101672.47
2023-05-17T15:28:53.077Z,101664.13
2023-05-17T15:38:57.551Z,101668.28
2023-05-17T15:49:00.735Z,101664.13
2023-05-17T15:59:05.286Z,101663.28
2023-05-17T16:09:08.698Z,101678.34
2023-05-17T16:19:13.092Z,101661.88
2023-05-17T16:29:16.993Z,101657.09
2023-05-17T16:39:21.936Z,101664.31
2023-05-17T16:49:25.066Z,101666.22
2023-05-17T16:59:29.558Z,101668.81
2023-05-17T17:09:32.705Z,101671.28
2023-05-17T17:19:37.223Z,101666.22
2023-05-17T17:29:40.427Z,101670.94
2023-05-17T17:39:44.801Z,101672.69
2023-05-17T17:49:48.202Z,101676.44
2023-05-17T17:59:53.615Z,101686.16
2023-05-17T18:09:57.146Z,101691.34
2023-05-17T18:20:01.712Z,101697.97
2023-05-17T18:30:05.098Z,101706.28
2023-05-17T18:40:11.257Z,101703.94
2023-05-17T18:50:14.366Z,101700.75
2023-05-17T19:00:21.268Z,101714.94
2023-05-17T19:10:24.322Z,101716.94
2023-05-17T19:20:28.958Z,101728.34
2023-05-17T19:30:33.091Z,101737.91
2023-05-17T19:40:38.477Z,101751.47
2023-05-17T19:50:41.753Z,101749.22
2023-05-17T20:01:05.549Z,101752.81
2023-05-17T20:11:08.825Z,101759.09
2023-05-17T20:21:15.506Z,101764.41
2023-05-17T20:31:18.712Z,101766.25
2023-05-17T20:41:23.897Z,101776.75
2023-05-17T20:51:27.491Z,101783.94
2023-05-17T21:01:32.606Z,101794.28
2023-05-17T21:11:35.921Z,101795.09
2023-05-17T21:21:40.559Z,101798.69
2023-05-17T21:31:44.222Z,101810.94
2023-05-17T21:41:48.979Z,101802.41
2023-05-17T21:51:51.938Z,101806.75
2023-05-17T22:01:56.477Z,101801.75
2023-05-17T22:11:59.920Z,101801.94
2023-05-17T22:22:04.660Z,101809.03
2023-05-17T22:32:08.400Z,101813.31
2023-05-17T22:42:12.810Z,101808.31
2023-05-17T22:52:17.566Z,101804.03
2023-05-17T23:02:22.003Z,101801.56
2023-05-17T23:12:26.457Z,101801.59
2023-05-17T23:22:31.474Z,101803.34
2023-05-17T23:32:34.944Z,101808.47
2023-05-17T23:42:39.401Z,101811.03
2023-05-17T23:52:43.497Z,101814.47
